createdAt,value
2018-12-02T00:00:54.637Z,100038.00
2018-12-02T00:05:47.889Z,100034.00
2018-12-02T00:10:41.201Z,100023.00
2018-12-02T00:15:36.877Z,100017.00
2018-12-02T00:20:30.219Z,100007.00
2018-12-02T00:25:24.307Z,100005.00
2018-12-02T00:30:20.211Z,99996.00
2018-12-02T00:35:14.923Z,99992.00
2018-12-02T00:40:10.386Z,99990.00
2018-12-02T00:45:04.562Z,99986.00
2018-12-02T00:49:57.821Z,99976.00
2018-12-02T00:54:51.092Z,99969.00
2018-12-02T00:59:44.395Z,99954.00
2018-12-02T01:04:39.235Z,99950.00
2018-12-02T01:09:32.552Z,99940.00
2018-12-02T01:14:25.834Z,99933.00
2018-12-02T01:19:19.094Z,99921.00
2018-12-02T01:24:12.379Z,99922.00
2018-12-02T01:29:05.721Z,99915.00
2018-12-02T01:33:58.976Z,99914.00
2018-12-02T01:38:52.265Z,99917.00
2018-12-02T01:43:45.517Z,99907.00
2018-12-02T01:48:39.677Z,99896.00
2018-12-02T01:53:32.926Z,99899.00
2018-12-02T01:58:26.227Z,99886.00
2018-12-02T02:03:19.588Z,99876.00
2018-12-02T02:08:12.821Z,99863.00
2018-12-02T02:13:06.119Z,99847.00
2018-12-02T02:17:59.474Z,99844.00
2018-12-02T02:22:53.027Z,99849.00
2018-12-02T02:27:57.981Z,99840.00
2018-12-02T02:32:51.297Z,99821.00
2018-12-02T02:37:45.774Z,99820.00
2018-12-02T02:42:39.064Z,99813.00
2018-12-02T02:47:32.312Z,99811.00
2018-12-02T02:52:26.676Z,99800.00
2018-12-02T02:57:19.981Z,99798.00
2018-12-02T03:02:13.268Z,99795.00
2018-12-02T03:07:06.548Z,99788.00
2018-12-02T03:11:59.818Z,99779.00
2018-12-02T03:16:53.083Z,99781.00
2018-12-02T03:21:46.883Z,99776.00
2018-12-02T03:26:40.145Z,99772.00
2018-12-02T03:31:33.426Z,99768.00
2018-12-02T03:36:26.679Z,99757.00
2018-12-02T03:41:20.029Z,99754.00
2018-12-02T03:46:13.270Z,99748.00
2018-12-02T03:51:06.618Z,99748.00
2018-12-02T03:55:59.902Z,99730.00
2018-12-02T04:00:53.194Z,99727.00
2018-12-02T04:05:46.505Z,99716.00
2018-12-02T04:10:39.781Z,99708.00
2018-12-02T04:15:33.148Z,99698.00
2018-12-02T04:20:26.397Z,99698.00
2018-12-02T04:25:22.353Z,99692.00
2018-12-02T04:30:18.771Z,99685.00
2018-12-02T04:35:14.590Z,99685.00
2018-12-02T04:40:13.901Z,99674.00
2018-12-02T04:45:14.306Z,99664.00
2018-12-02T04:50:12.348Z,99652.00
2018-12-02T04:55:06.802Z,99652.00
2018-12-02T05:00:00.065Z,99640.00
2018-12-02T05:04:53.310Z,99631.00
2018-12-02T05:09:46.660Z,99626.00
2018-12-02T05:14:39.938Z,99622.00
2018-12-02T05:19:33.180Z,99622.00
2018-12-02T05:24:26.480Z,99610.00
2018-12-02T05:29:19.800Z,99612.00
2018-12-02T05:34:13.030Z,99599.00
2018-12-02T05:39:09.170Z,99597.00
2018-12-02T05:44:02.426Z,99583.00
2018-12-02T05:48:55.707Z,99566.00
2018-12-02T05:53:48.970Z,99545.00
2018-12-02T05:58:42.257Z,99541.00
2018-12-02T06:03:35.564Z,99540.00
2018-12-02T06:08:28.799Z,99536.00
2018-12-02T06:13:22.036Z,99531.00
2018-12-02T06:18:15.333Z,99526.00
2018-12-02T06:23:08.622Z,99528.00
2018-12-02T06:28:01.881Z,99533.00
2018-12-02T06:33:00.864Z,99532.00
2018-12-02T06:37:55.640Z,99535.00
2018-12-02T06:42:50.346Z,99534.00
2018-12-02T06:47:43.661Z,99550.00
2018-12-02T06:52:36.943Z,99541.00
2018-12-02T06:57:38.893Z,99538.00
2018-12-02T07:04:43.119Z,99538.00
2018-12-02T07:09:36.410Z,99536.00
2018-12-02T07:14:29.720Z,99533.00
2018-12-02T07:19:34.666Z,99520.00
2018-12-02T07:24:31.962Z,99522.00
2018-12-02T07:29:25.224Z,99512.00
2018-12-02T07:34:18.433Z,99505.00
2018-12-02T07:41:21.297Z,99504.00
2018-12-02T07:46:14.608Z,99500.00
2018-12-02T07:51:07.896Z,99495.00
2018-12-02T07:56:01.220Z,99503.00
2018-12-02T08:00:54.499Z,99501.00
2018-12-02T08:05:47.800Z,99496.00
2018-12-02T08:10:41.103Z,99490.00
2018-12-02T08:15:34.466Z,99491.00
2018-12-02T08:20:27.818Z,99491.00
2018-12-02T08:25:21.131Z,99496.00
2018-12-02T08:30:24.983Z,99489.00
2018-12-02T08:35:19.924Z,99486.00
2018-12-02T08:40:13.278Z,99491.00
2018-12-02T08:45:14.403Z,99493.00
2018-12-02T08:50:14.403Z,99498.00
2018-12-02T08:55:09.854Z,99497.00
2018-12-02T09:00:03.972Z,99503.00
2018-12-02T09:04:57.249Z,99500.00
2018-12-02T09:09:50.523Z,99504.00
2018-12-02T09:14:43.789Z,99509.00
2018-12-02T09:19:37.125Z,99508.00
2018-12-02T09:24:30.389Z,99496.00
2018-12-02T09:29:23.693Z,99491.00
2018-12-02T09:34:17.052Z,99492.00
2018-12-02T09:39:10.385Z,99497.00
2018-12-02T09:44:03.759Z,99494.00
2018-12-02T09:48:57.035Z,99498.00
2018-12-02T09:53:50.295Z,99501.00
2018-12-02T09:58:43.576Z,99510.00
2018-12-02T10:03:36.842Z,99510.00
2018-12-02T10:08:30.152Z,99510.00
2018-12-02T10:13:23.933Z,99518.00
2018-12-02T10:18:17.236Z,99514.00
2018-12-02T10:23:10.567Z,99514.00
2018-12-02T10:28:04.139Z,99510.00
2018-12-02T10:32:58.043Z,99515.00
2018-12-02T10:37:52.444Z,99506.00
2018-12-02T10:42:46.229Z,99507.00
2018-12-02T10:47:39.601Z,99498.00
2018-12-02T10:52:32.967Z,99505.00
2018-12-02T10:57:26.201Z,99501.00
2018-12-02T11:02:19.480Z,99498.00
2018-12-02T11:07:12.771Z,99493.00
2018-12-02T11:12:06.168Z,99495.00
2018-12-02T11:16:59.451Z,99490.00
2018-12-02T11:21:52.767Z,99491.00
2018-12-02T11:26:46.087Z,99495.00
2018-12-02T11:31:39.410Z,99481.00
2018-12-02T11:36:34.177Z,99480.00
2018-12-02T11:41:28.744Z,99482.00
2018-12-02T11:46:23.680Z,99481.00
2018-12-02T11:51:17.037Z,99463.00
2018-12-02T11:56:12.675Z,99490.00
2018-12-02T12:01:07.482Z,99493.00
2018-12-02T12:06:00.849Z,99489.00
2018-12-02T12:10:54.278Z,99496.00
2018-12-02T12:15:47.597Z,99496.00
2018-12-02T12:20:42.279Z,99506.00
2018-12-02T12:25:35.641Z,99505.00
2018-12-02T12:30:30.759Z,99504.00
2018-12-02T12:35:24.742Z,99499.00
2018-12-02T12:40:34.797Z,99509.00
2018-12-02T12:45:28.153Z,99501.00
2018-12-02T12:50:21.476Z,99511.00
2018-12-02T12:55:17.289Z,99513.00
2018-12-02T13:00:15.217Z,99517.00
2018-12-02T13:05:11.123Z,99518.00
2018-12-02T13:10:07.208Z,99514.00
2018-12-02T13:15:00.425Z,99521.00
2018-12-02T13:19:53.743Z,99531.00
2018-12-02T13:24:47.070Z,99521.00
2018-12-02T13:29:40.355Z,99525.00
2018-12-02T13:34:33.634Z,99533.00
2018-12-02T13:39:26.942Z,99535.00
2018-12-02T13:44:20.249Z,99547.00
2018-12-02T13:49:13.722Z,99554.00
2018-12-02T13:54:13.084Z,99550.00
2018-12-02T13:59:07.331Z,99563.00
2018-12-02T14:04:00.582Z,99564.00
2018-12-02T14:08:54.118Z,99566.00
2018-12-02T14:13:47.431Z,99578.00
2018-12-02T14:18:42.946Z,99582.00
2018-12-02T14:23:38.469Z,99588.00
2018-12-02T14:28:52.984Z,99591.00
2018-12-02T14:33:46.236Z,99591.00
2018-12-02T14:38:40.373Z,99597.00
2018-12-02T14:43:32.887Z,99604.00
2018-12-02T14:48:26.162Z,99609.00
2018-12-02T14:53:19.539Z,99612.00
2018-12-02T14:58:12.824Z,99612.00
2018-12-02T15:03:06.467Z,99613.00
2018-12-02T15:08:00.760Z,99615.00
2018-12-02T15:12:54.085Z,99630.00
2018-12-02T15:17:48.323Z,99632.00
2018-12-02T15:22:41.657Z,99644.00
2018-12-02T15:27:34.985Z,99645.00
2018-12-02T15:32:28.309Z,99646.00
2018-12-02T15:37:21.636Z,99646.00
2018-12-02T15:42:14.914Z,99645.00
2018-12-02T15:47:08.235Z,99647.00
2018-12-02T15:52:01.852Z,99648.00
2018-12-02T15:56:55.218Z,99650.00
2018-12-02T16:01:48.532Z,99655.00
2018-12-02T16:06:41.832Z,99647.00
2018-12-02T16:11:35.161Z,99655.00
2018-12-02T16:16:28.443Z,99654.00
2018-12-02T16:21:21.760Z,99653.00
2018-12-02T16:26:15.045Z,99653.00
2018-12-02T16:31:08.302Z,99643.00
2018-12-02T16:36:01.636Z,99653.00
2018-12-02T16:40:55.155Z,99659.00
2018-12-02T16:45:48.452Z,99656.00
2018-12-02T16:50:45.041Z,99655.00
2018-12-02T16:55:43.261Z,99652.00
2018-12-02T17:00:49.821Z,99654.00
2018-12-02T17:05:43.139Z,99660.00
2018-12-02T17:10:36.412Z,99664.00
2018-12-02T17:15:29.704Z,99658.00
2018-12-02T17:20:23.020Z,99663.00
2018-12-02T17:25:16.322Z,99653.00
2018-12-02T17:30:36.396Z,99654.00
2018-12-02T17:35:29.650Z,99658.00
2018-12-02T17:40:23.726Z,99665.00
2018-12-02T17:45:17.034Z,99669.00
2018-12-02T17:50:15.463Z,99672.00
2018-12-02T17:55:08.872Z,99673.00
2018-12-02T18:00:02.241Z,99685.00
2018-12-02T18:04:55.531Z,99688.00
2018-12-02T18:09:48.840Z,99695.00
2018-12-02T18:14:42.131Z,99700.00
2018-12-02T18:19:35.410Z,99706.00
2018-12-02T18:24:28.715Z,99712.00
2018-12-02T18:29:22.021Z,99726.00
2018-12-02T18:34:15.333Z,99726.00
2018-12-02T18:39:12.835Z,99738.00
2018-12-02T18:44:13.425Z,99732.00
2018-12-02T18:49:11.630Z,99737.00
2018-12-02T18:54:09.458Z,99731.00
2018-12-02T18:59:07.284Z,99729.00
2018-12-02T19:04:04.927Z,99723.00
2018-12-02T19:09:02.997Z,99730.00
2018-12-02T19:13:59.151Z,99726.00
2018-12-02T19:18:54.916Z,99722.00
2018-12-02T19:23:51.072Z,99727.00
2018-12-02T19:28:44.491Z,99719.00
2018-12-02T19:33:38.355Z,99723.00
2018-12-02T19:38:31.812Z,99720.00
2018-12-02T19:43:25.123Z,99721.00
2018-12-02T19:48:18.436Z,99724.00
2018-12-02T19:53:11.744Z,99724.00
2018-12-02T19:58:08.332Z,99710.00
2018-12-02T20:03:01.637Z,99705.00
2018-12-02T20:08:00.450Z,99696.00
2018-12-02T20:12:53.740Z,99699.00
2018-12-02T20:17:47.141Z,99695.00
2018-12-02T20:22:40.661Z,99695.00
2018-12-02T20:27:33.966Z,99691.00
2018-12-02T20:32:27.285Z,99691.00
2018-12-02T20:37:20.569Z,99689.00
2018-12-02T20:42:13.893Z,99682.00
2018-12-02T20:47:07.474Z,99674.00
2018-12-02T20:52:00.735Z,99672.00
2018-12-02T20:56:54.051Z,99666.00
2018-12-02T21:01:48.498Z,99661.00
2018-12-02T21:06:43.113Z,99666.00
2018-12-02T21:11:40.725Z,99660.00
2018-12-02T21:16:34.122Z,99656.00
2018-12-02T21:21:27.482Z,99655.00
2018-12-02T21:26:20.830Z,99653.00
2018-12-02T21:31:14.209Z,99654.00
2018-12-02T21:36:07.588Z,99652.00
2018-12-02T21:41:00.901Z,99648.00
2018-12-02T21:45:54.221Z,99641.00
2018-12-02T21:50:53.782Z,99644.00
2018-12-02T21:55:47.092Z,99642.00
2018-12-02T22:00:49.974Z,99652.00
2018-12-02T22:05:43.304Z,99648.00
2018-12-02T22:10:36.648Z,99654.00
2018-12-02T22:15:30.006Z,99648.00
2018-12-02T22:20:23.410Z,99662.00
2018-12-02T22:25:19.171Z,99656.00
2018-12-02T22:30:21.183Z,99659.00
2018-12-02T22:35:15.426Z,99655.00
2018-12-02T22:40:13.711Z,99648.00
2018-12-02T22:45:11.685Z,99661.00
2018-12-02T22:50:08.568Z,99650.00
2018-12-02T22:55:01.938Z,99650.00
2018-12-02T22:59:55.158Z,99653.00
2018-12-02T23:04:48.450Z,99670.00
2018-12-02T23:09:41.841Z,99683.00
2018-12-02T23:14:35.119Z,99668.00
2018-12-02T23:19:30.177Z,99664.00
2018-12-02T23:24:26.686Z,99672.00
2018-12-02T23:29:20.006Z,99650.00
2018-12-02T23:34:13.264Z,99658.00
2018-12-02T23:39:07.710Z,99623.00
2018-12-02T23:44:01.045Z,99620.00
2018-12-02T23:48:54.323Z,99631.00
2018-12-02T23:53:47.645Z,99627.00
2018-12-02T23:58:40.893Z,99629.00
